Time;durP1;ratioP1;P1;durP2;ratioP2;P2;SDS_P1;SDS_P2;PMS_P1;PMS_P2;Temp;Humidity;BMP_temperature;BMP_pressure;BME280_temperature;BME280_humidity;BME280_pressure;Samples;Min_cycle;Max_cycle;Signal;HPM_P1;HPM_P2
2021/01/02 00:02:33;;;;;;;23.75;10.70;;;;;;;5.77;100.00;100250.33;1725468;83;21971;-77
2021/01/02 00:05:43;;;;;;;23.73;12.28;;;;;;;5.75;100.00;100259.13;1705516;83;21316;-77
2021/01/02 00:08:50;;;;;;;;;;;;;;;5.75;100.00;100257.77;1725832;83;21710;-77
2021/01/02 00:12:23;;;;;;;22.87;13.10;;;;;;;5.74;100.00;100262.86;1727408;83;20198;-77
2021/01/02 00:15:47;;;;;;;22.13;11.80;;;;;;;5.75;100.00;100263.70;1724827;83;21325;-77
2021/01/02 00:19:16;;;;;;;24.70;13.00;;;;;;;5.74;100.00;100278.25;1719162;83;21250;-77
2021/01/02 00:22:31;;;;;;;30.43;16.20;;;;;;;5.71;100.00;100282.64;1725430;83;21907;-77
2021/01/02 00:25:39;;;;;;;24.05;14.83;;;;;;;5.66;100.00;100289.00;1724827;83;21333;-77
2021/01/02 00:28:45;;;;;;;27.35;14.83;;;;;;;5.62;100.00;100287.93;1726184;83;21190;-77
2021/01/02 00:32:23;;;;;;;27.22;15.43;;;;;;;5.60;100.00;100282.31;1725975;83;21253;-77
2021/01/02 00:35:36;;;;;;;31.15;16.02;;;;;;;5.58;100.00;100287.86;1725478;83;21840;-76
2021/01/02 00:38:43;;;;;;;18.70;11.53;;;;;;;5.59;100.00;100286.00;1726825;83;21813;-76
2021/01/02 00:41:50;;;;;;;17.52;11.50;;;;;;;5.61;100.00;100292.16;1727283;83;21171;-76
2021/01/02 00:44:56;;;;;;;16.87;11.55;;;;;;;5.63;100.00;100293.70;1727337;83;21322;-77
2021/01/02 00:48:02;;;;;;;27.05;14.83;;;;;;;5.61;100.00;100296.23;1727487;83;21206;-76
2021/01/02 00:51:08;;;;;;;29.65;17.92;;;;;;;5.58;100.00;100305.49;1720325;82;21346;-77
2021/01/02 00:54:27;;;;;;;30.60;17.45;;;;;;;5.54;100.00;100303.21;1703103;84;21796;-76
2021/01/02 00:57:43;;;;;;;29.52;17.62;;;;;;;5.52;100.00;100306.59;1686079;84;21312;-76
2021/01/02 01:00:48;;;;;;;27.15;17.45;;;;;;;5.44;100.00;100298.30;1664692;84;21331;-77
2021/01/02 01:04:27;;;;;;;26.00;16.37;;;;;;;5.36;100.00;100301.72;1702990;84;21329;-76
2021/01/02 01:07:33;;;;;;;33.60;18.23;;;;;;;5.31;100.00;100297.22;1689365;84;21376;-76
2021/01/02 01:10:41;;;;;;;28.15;14.58;;;;;;;5.29;100.00;100300.59;1701950;84;21743;-76
2021/01/02 01:13:48;;;;;;;21.40;13.03;;;;;;;5.27;100.00;100310.23;1701881;84;21791;-76
2021/01/02 01:16:53;;;;;;;32.10;16.90;;;;;;;5.26;100.00;100323.41;1702061;84;21229;-76
2021/01/02 01:20:01;;;;;;;28.67;14.00;;;;;;;5.22;100.00;100319.77;1701393;84;21324;-77
2021/01/02 01:23:34;;;;;;;35.70;17.17;;;;;;;5.19;100.00;100331.77;1701368;84;21857;-76
2021/01/02 01:27:11;;;;;;;25.12;14.15;;;;;;;5.13;100.00;100326.92;1702119;84;21304;-76
2021/01/02 01:30:19;;;;;;;28.47;15.65;;;;;;;5.09;100.00;100333.62;1701977;84;21304;-76
2021/01/02 01:33:26;;;;;;;29.10;16.45;;;;;;;5.03;100.00;100331.45;1701121;84;21831;-76
2021/01/02 01:36:41;;;;;;;23.27;14.10;;;;;;;5.00;100.00;100330.40;1702964;84;21827;-76
2021/01/02 01:39:46;;;;;;;27.93;16.75;;;;;;;5.03;100.00;100343.65;1702999;84;21269;-76
2021/01/02 01:42:52;;;;;;;31.05;17.65;;;;;;;5.03;100.00;100357.20;1702984;84;21720;-76
2021/01/02 01:46:17;;;;;;;25.70;15.68;;;;;;;4.99;100.00;100354.45;1683046;84;21291;-76
2021/01/02 01:49:38;;;;;;;31.12;18.60;;;;;;;4.96;100.00;100354.20;1702563;84;21331;-76
2021/01/02 01:53:01;;;;;;;26.75;17.07;;;;;;;4.95;100.00;100363.34;1709885;82;21278;-77
2021/01/02 01:56:23;;;;;;;30.97;17.98;;;;;;;4.95;100.00;100363.84;1726354;83;21215;-75
2021/01/02 01:59:31;;;;;;;26.87;17.05;;;;;;;4.93;100.00;100369.38;1726438;83;21852;-76
2021/01/02 02:03:00;;;;;;;33.30;19.30;;;;;;;4.90;100.00;100378.31;1726309;83;21321;-76
2021/01/02 02:06:31;;;;;;;29.80;18.42;;;;;;;4.90;100.00;100371.54;1725544;83;21332;-76
2021/01/02 02:09:48;;;;;;;29.40;18.00;;;;;;;4.88;100.00;100379.28;1726720;83;21844;-76
2021/01/02 02:13:04;;;;;;;32.03;21.23;;;;;;;4.90;100.00;100374.25;1726468;83;21294;-76
2021/01/02 02:16:10;;;;;;;40.58;21.17;;;;;;;4.88;100.00;100383.85;1727095;83;21309;-76
2021/01/02 02:19:20;;;;;;;32.35;19.92;;;;;;;4.90;100.00;100390.02;1726400;83;21309;-77
2021/01/02 02:22:26;;;;;;;28.35;17.45;;;;;;;4.97;100.00;100399.29;1726639;83;21203;-76
2021/01/02 02:25:31;;;;;;;26.85;17.65;;;;;;;5.02;100.00;100390.24;1712127;83;21314;-76
2021/01/02 02:28:50;;;;;;;34.90;18.60;;;;;;;5.00;100.00;100394.10;1726548;83;21737;-77
2021/01/02 02:31:56;;;;;;;24.32;15.90;;;;;;;5.02;100.00;100402.94;1726611;83;21305;-76
2021/01/02 02:35:03;;;;;;;27.00;18.35;;;;;;;5.01;100.00;100412.08;1725989;83;21345;-76
2021/01/02 02:38:08;;;;;;;35.40;17.85;;;;;;;4.97;100.00;100421.48;1725002;83;21316;-77
2021/01/02 02:41:17;;;;;;;23.50;16.75;;;;;;;4.95;100.00;100424.84;1725115;83;21306;-76
2021/01/02 02:44:44;;;;;;;26.90;17.40;;;;;;;4.96;100.00;100426.05;1725379;83;21313;-75
2021/01/02 02:47:50;;;;;;;40.40;23.92;;;;;;;4.98;100.00;100421.83;1726595;83;21297;-76
2021/01/02 02:50:59;;;;;;;39.00;23.27;;;;;;;4.95;100.00;100433.82;1727430;83;21817;-76
2021/01/02 02:54:03;;;;;;;47.58;25.50;;;;;;;4.97;100.00;100430.97;1735809;82;22294;-76
2021/01/02 02:57:08;;;;;;;53.73;26.65;;;;;;;4.98;100.00;100435.38;1727454;83;21151;-76
2021/01/02 03:00:15;;;;;;;57.73;27.15;;;;;;;5.04;100.00;100438.42;1726518;83;21317;-76
2021/01/02 03:03:21;;;;;;;44.90;24.23;;;;;;;5.12;100.00;100439.06;1726501;83;21206;-76
2021/01/02 03:06:26;;;;;;;53.25;25.97;;;;;;;5.15;100.00;100445.58;1726041;83;21931;-76
2021/01/02 03:09:32;;;;;;;46.55;26.12;;;;;;;5.17;100.00;100432.73;1725133;83;21844;-76
2021/01/02 03:12:39;;;;;;;42.45;23.65;;;;;;;5.22;100.00;100439.09;1726440;83;21911;-76
2021/01/02 03:15:49;;;;;;;52.73;25.37;;;;;;;5.27;100.00;100445.84;1713420;83;21326;-76
2021/01/02 03:18:56;;;;;;;48.68;25.77;;;;;;;5.28;100.00;100450.27;1726763;83;21793;-76
2021/01/02 03:22:02;;;;;;;47.00;25.37;;;;;;;5.33;100.00;100451.20;1725780;83;21338;-76
2021/01/02 03:25:08;;;;;;;45.95;23.55;;;;;;;5.40;100.00;100456.41;1725038;83;21221;-77
2021/01/02 03:28:14;;;;;;;37.78;22.00;;;;;;;5.46;100.00;100468.55;1726529;83;21699;-77
2021/01/02 03:31:20;;;;;;;46.13;21.23;;;;;;;5.49;100.00;100480.50;1726519;83;21852;-76
2021/01/02 03:34:26;;;;;;;32.98;19.62;;;;;;;5.45;100.00;100477.20;1725904;83;21325;-77
2021/01/02 03:37:33;;;;;;;32.45;21.90;;;;;;;5.40;100.00;100487.61;1726932;83;21238;-76
2021/01/02 03:40:40;;;;;;;31.82;21.00;;;;;;;5.36;100.00;100483.45;1726531;83;21246;-76
2021/01/02 03:43:45;;;;;;;33.55;21.52;;;;;;;5.36;100.00;100497.02;1725143;83;21340;-76
2021/01/02 03:46:51;;;;;;;40.90;21.68;;;;;;;5.37;100.00;100498.76;1726441;83;21194;-76
2021/01/02 03:49:57;;;;;;;32.63;20.17;;;;;;;5.39;100.00;100501.67;1724981;83;21734;-76
2021/01/02 03:53:03;;;;;;;33.42;20.05;;;;;;;5.39;100.00;100500.31;1725438;83;21259;-76
2021/01/02 03:56:09;;;;;;;35.85;22.07;;;;;;;5.39;100.00;100515.23;1726014;83;21324;-77
2021/01/02 03:59:15;;;;;;;39.53;23.42;;;;;;;5.36;100.00;100521.43;1728239;83;21195;-76
2021/01/02 04:02:20;;;;;;;45.98;24.92;;;;;;;5.38;100.00;100528.45;1729579;83;21298;-76
2021/01/02 04:05:26;;;;;;;39.08;23.85;;;;;;;5.37;100.00;100537.59;1728164;83;21329;-77
2021/01/02 04:08:32;;;;;;;38.48;22.50;;;;;;;5.36;100.00;100541.30;1730535;83;21929;-76
2021/01/02 04:11:38;;;;;;;46.58;22.90;;;;;;;5.39;100.00;100541.02;1730134;83;21318;-76
2021/01/02 04:14:44;;;;;;;36.60;20.10;;;;;;;5.36;100.00;100544.02;1729165;83;21333;-76
2021/01/02 04:17:50;;;;;;;36.90;23.95;;;;;;;5.33;100.00;100548.85;1729592;83;22111;-76
2021/01/02 04:20:56;;;;;;;43.75;26.25;;;;;;;5.28;100.00;100554.69;1710474;83;21273;-76
2021/01/02 04:24:02;;;;;;;41.20;23.38;;;;;;;5.27;100.00;100554.33;1730370;83;21309;-76
2021/01/02 04:27:09;;;;;;;49.10;27.10;;;;;;;5.29;100.00;100569.10;1729678;83;21327;-76
2021/01/02 04:30:16;;;;;;;44.38;25.25;;;;;;;5.26;100.00;100572.93;1728301;83;21310;-76
2021/01/02 04:33:22;;;;;;;46.60;26.27;;;;;;;5.23;100.00;100578.65;1729658;83;21967;-76
2021/01/02 04:36:28;;;;;;;51.33;28.12;;;;;;;5.25;100.00;100587.49;1728201;83;21340;-76
2021/01/02 04:39:34;;;;;;;44.20;25.97;;;;;;;5.30;100.00;100590.66;1729718;83;21773;-77
2021/01/02 04:42:39;;;;;;;45.38;25.40;;;;;;;5.36;100.00;100600.09;1729771;83;21202;-77
2021/01/02 04:45:45;;;;;;;51.95;25.97;;;;;;;5.40;100.00;100613.75;1728999;83;21313;-76
2021/01/02 04:48:53;;;;;;;49.75;27.85;;;;;;;5.44;100.00;100618.42;1729651;83;21903;-76
2021/01/02 04:52:08;;;;;;;50.90;28.07;;;;;;;5.48;100.00;100622.58;1730620;83;21274;-76
2021/01/02 04:55:14;;;;;;;39.85;24.95;;;;;;;5.53;100.00;100632.53;1712265;83;21305;-76
2021/01/02 04:58:21;;;;;;;42.20;24.80;;;;;;;5.59;100.00;100634.69;1727963;82;21312;-76
2021/01/02 05:01:27;;;;;;;47.73;26.23;;;;;;;5.63;100.00;100648.34;1727530;83;21163;-76
2021/01/02 05:04:32;;;;;;;47.98;26.25;;;;;;;5.68;100.00;100650.66;1727562;83;21718;-76
2021/01/02 05:07:39;;;;;;;41.90;23.67;;;;;;;5.75;100.00;100660.84;1726512;83;21238;-76
2021/01/02 05:10:44;;;;;;;41.98;24.92;;;;;;;5.80;100.00;100661.79;1726417;83;21244;-76
2021/01/02 05:13:50;;;;;;;35.03;22.22;;;;;;;5.79;100.00;100664.15;1726419;83;21305;-76
2021/01/02 05:16:57;;;;;;;40.50;23.95;;;;;;;5.77;100.00;100675.13;1725229;83;21659;-77
2021/01/02 05:20:09;;;;;;;42.10;23.20;;;;;;;5.77;100.00;100674.27;1726649;83;21832;-76
2021/01/02 05:23:17;;;;;;;36.20;22.02;;;;;;;5.80;100.00;100683.51;1727185;83;21349;-77
2021/01/02 05:26:23;;;;;;;45.92;24.15;;;;;;;5.82;100.00;100687.78;1725775;83;21614;-77
2021/01/02 05:29:31;;;;;;;38.25;23.10;;;;;;;5.83;100.00;100693.60;1725173;83;22649;-76
2021/01/02 05:32:37;;;;;;;40.92;22.20;;;;;;;5.86;100.00;100697.38;1726442;83;21353;-76
2021/01/02 05:35:49;;;;;;;42.20;24.65;;;;;;;5.88;100.00;100703.55;1725488;83;21333;-76
2021/01/02 05:38:56;;;;;;;40.83;22.00;;;;;;;5.89;100.00;100703.91;1726358;83;21344;-77
2021/01/02 05:42:02;;;;;;;44.30;24.32;;;;;;;5.92;100.00;100715.51;1726577;83;21301;-76
2021/01/02 05:45:08;;;;;;;42.25;24.05;;;;;;;5.92;99.93;100718.22;1725216;83;21519;-76
2021/01/02 05:48:24;;;;;;;42.85;25.95;;;;;;;5.89;99.73;100727.48;1726530;83;21317;-78
2021/01/02 05:51:30;;;;;;;43.30;25.68;;;;;;;5.86;99.59;100723.17;1725115;83;21373;-77
2021/01/02 05:54:43;;;;;;;42.80;24.20;;;;;;;5.86;99.48;100727.75;1725853;83;21396;-76
2021/01/02 05:57:46;;;;;;;44.15;25.62;;;;;;;5.88;99.39;100730.70;1727512;83;21159;-77
2021/01/02 06:00:54;;;;;;;45.75;25.92;;;;;;;5.88;99.24;100732.06;1726685;83;21238;-76
2021/01/02 06:04:00;;;;;;;42.08;25.27;;;;;;;5.89;99.14;100738.34;1726487;83;21309;-77
2021/01/02 06:07:15;;;;;;;51.65;27.70;;;;;;;5.90;99.01;100734.63;1725635;83;21305;-77
2021/01/02 06:10:21;;;;;;;48.28;29.00;;;;;;;5.92;98.89;100748.09;1725453;83;21266;-77
2021/01/02 06:13:27;;;;;;;49.03;26.52;;;;;;;5.92;98.75;100754.88;1726350;83;21317;-77
2021/01/02 06:16:33;;;;;;;56.42;28.38;;;;;;;5.93;98.62;100759.30;1725991;83;21932;-77
2021/01/02 06:19:40;;;;;;;52.20;28.02;;;;;;;5.94;98.49;100768.70;1725888;83;21306;-77
2021/01/02 06:22:46;;;;;;;53.40;31.05;;;;;;;5.97;98.44;100772.47;1727552;83;22089;-77
2021/01/02 06:25:50;;;;;;;52.53;28.87;;;;;;;5.99;98.31;100779.16;1727119;83;21325;-77
2021/01/02 06:28:56;;;;;;;47.53;28.23;;;;;;;6.02;98.18;100789.72;1727202;83;21175;-77
2021/01/02 06:32:01;;;;;;;49.73;27.93;;;;;;;6.07;98.08;100795.60;1726847;83;21273;-77
2021/01/02 06:35:23;;;;;;;46.53;29.02;;;;;;;6.15;98.02;100805.30;1726541;81;21310;-78
2021/01/02 06:38:29;;;;;;;52.17;28.70;;;;;;;6.15;97.70;100804.80;1725736;83;21404;-77
2021/01/02 06:41:38;;;;;;;52.13;29.80;;;;;;;6.15;97.44;100802.59;1725583;83;21215;-77
2021/01/02 06:44:51;;;;;;;59.67;31.60;;;;;;;6.16;97.28;100813.80;1726184;83;21352;-77
2021/01/02 06:47:56;;;;;;;63.42;32.03;;;;;;;6.18;97.15;100828.62;1724811;83;22027;-77
2021/01/02 06:51:07;;;;;;;53.33;29.57;;;;;;;6.17;96.99;100823.70;1725578;83;21360;-77
2021/01/02 06:54:13;;;;;;;48.48;27.00;;;;;;;6.19;96.95;100828.98;1724124;83;21822;-77
2021/01/02 06:57:19;;;;;;;57.27;31.82;;;;;;;6.21;96.95;100830.59;1688275;83;21689;-77
2021/01/02 07:00:30;;;;;;;59.75;29.25;;;;;;;6.23;96.90;100837.23;1736451;82;21328;-77
2021/01/02 07:03:52;;;;;;;47.15;26.75;;;;;;;6.26;96.82;100844.63;1751119;82;21249;-77
2021/01/02 07:06:58;;;;;;;50.60;26.60;;;;;;;6.25;96.63;100851.52;1750677;82;21324;-76
2021/01/02 07:10:04;;;;;;;55.10;28.98;;;;;;;6.21;96.38;100860.47;1750182;82;21871;-77
2021/01/02 07:13:19;;;;;;;47.75;28.05;;;;;;;6.15;96.21;100867.78;1750354;82;21237;-76
2021/01/02 07:16:51;;;;;;;41.60;25.68;;;;;;;6.13;96.14;100879.28;1750339;82;21324;-77
2021/01/02 07:19:52;;;;;;;49.42;27.48;;;;;;;6.10;96.13;100898.05;1750370;82;21304;-76
2021/01/02 07:23:07;;;;;;;38.73;21.68;;;;;;;6.08;96.24;100900.55;1750225;82;21304;-76
2021/01/02 07:26:31;;;;;;;45.78;24.32;;;;;;;6.06;96.32;100906.59;1749541;82;21281;-76
2021/01/02 07:29:36;;;;;;;36.25;20.37;;;;;;;5.98;96.40;100911.86;1750269;82;21296;-77
2021/01/02 07:32:45;;;;;;;47.58;25.80;;;;;;;5.93;96.65;100914.97;1750448;82;21824;-76
2021/01/02 07:35:52;;;;;;;64.97;26.93;;;;;;;5.85;96.80;100927.80;1749478;80;21228;-76
2021/01/02 07:38:59;;;;;;;54.65;26.85;;;;;;;5.76;97.02;100930.44;1749012;82;21226;-75
2021/01/02 07:42:06;;;;;;;61.15;28.32;;;;;;;5.75;97.29;100932.79;1751309;82;21320;-76
2021/01/02 07:45:16;;;;;;;55.63;27.32;;;;;;;5.71;97.25;100934.89;1750935;82;21205;-76
2021/01/02 07:48:25;;;;;;;52.88;26.23;;;;;;;5.75;97.04;100943.65;1750092;82;21368;-76
2021/01/02 07:51:33;;;;;;;60.52;27.27;;;;;;;5.77;96.50;100940.30;1750442;82;21312;-76
2021/01/02 07:54:41;;;;;;;59.95;28.67;;;;;;;5.76;96.01;100946.22;1750473;82;21316;-76
2021/01/02 07:57:47;;;;;;;59.10;26.37;;;;;;;5.77;95.84;100954.72;1748835;82;21779;-76
2021/01/02 08:00:52;;;;;;;55.30;27.40;;;;;;;5.74;95.63;100965.86;1742878;82;21238;-76
2021/01/02 08:03:57;;;;;;;63.83;27.95;;;;;;;5.73;95.52;100965.97;1726600;83;21349;-76
2021/01/02 08:07:05;;;;;;;52.62;25.88;;;;;;;5.73;95.26;100973.62;1726521;83;21321;-76
2021/01/02 08:10:12;;;;;;;47.50;23.67;;;;;;;5.73;94.97;100980.41;1727429;83;21278;-76
2021/01/02 08:13:18;;;;;;;51.58;24.65;;;;;;;5.72;94.66;100973.26;1727460;83;21285;-76
2021/01/02 08:16:23;;;;;;;47.20;23.22;;;;;;;5.72;94.47;100985.97;1690136;83;21147;-76
2021/01/02 08:19:29;;;;;;;41.13;21.30;;;;;;;5.72;94.26;100986.83;1725209;83;21880;-76
2021/01/02 08:22:41;;;;;;;34.92;18.27;;;;;;;5.74;94.04;100984.86;1726477;83;21179;-75
2021/01/02 08:25:46;;;;;;;43.92;21.45;;;;;;;5.79;93.92;100993.48;1725190;83;21305;-76
2021/01/02 08:28:53;;;;;;;39.65;21.27;;;;;;;5.86;93.78;100998.74;1725691;83;21738;-76
2021/01/02 08:32:05;;;;;;;40.92;21.37;;;;;;;5.97;93.61;100990.22;1725016;83;21333;-76
2021/01/02 08:35:21;;;;;;;38.53;19.62;;;;;;;6.08;92.99;100991.54;1725001;82;21210;-75
2021/01/02 08:38:27;;;;;;;42.85;21.87;;;;;;;6.18;92.01;101000.63;1726153;83;21903;-76
2021/01/02 08:41:33;;;;;;;47.33;23.55;;;;;;;6.18;91.07;101006.55;1711903;83;21305;-75
2021/01/02 08:44:51;;;;;;;43.02;22.75;;;;;;;6.15;90.25;101003.59;1726904;83;21364;-76
2021/01/02 08:47:57;;;;;;;51.02;23.45;;;;;;;6.10;89.54;101012.63;1727036;83;21385;-75
2021/01/02 08:51:02;;;;;;;42.78;22.15;;;;;;;6.02;89.24;101011.94;1726465;83;21199;-76
2021/01/02 08:54:22;;;;;;;43.40;23.65;;;;;;;6.01;89.09;101016.98;1726349;83;21313;-76
2021/01/02 08:57:38;;;;;;;43.68;22.52;;;;;;;6.06;89.28;101014.73;1726430;83;21384;-76
2021/01/02 09:00:43;;;;;;;40.70;21.17;;;;;;;6.15;89.50;101009.87;1726664;83;21317;-76
2021/01/02 09:03:48;;;;;;;34.45;21.23;;;;;;;6.23;88.94;101013.31;1714083;82;21324;-76
2021/01/02 09:06:55;;;;;;;42.30;20.05;;;;;;;6.29;88.37;101020.93;1736619;82;21353;-75
2021/01/02 09:10:03;;;;;;;39.10;19.05;;;;;;;6.42;88.46;101022.60;1735596;82;21858;-76
2021/01/02 09:13:07;;;;;;;40.40;20.08;;;;;;;6.51;88.17;101018.59;1715575;82;21388;-76
2021/01/02 09:16:22;;;;;;;35.43;19.67;;;;;;;6.55;87.71;101021.91;1736941;82;21325;-76
2021/01/02 09:19:33;;;;;;;41.13;19.00;;;;;;;6.57;87.36;101027.56;1736006;82;21242;-75
2021/01/02 09:22:38;;;;;;;29.48;17.12;;;;;;;6.59;87.11;101032.89;1736847;82;21305;-76
2021/01/02 09:25:45;;;;;;;29.02;16.82;;;;;;;6.60;87.15;101031.89;1735293;82;21313;-77
2021/01/02 09:28:52;;;;;;;26.60;16.02;;;;;;;6.55;86.82;101042.30;1737562;82;21309;-76
2021/01/02 09:31:57;;;;;;;33.53;18.37;;;;;;;6.48;86.31;101037.02;1737617;82;21178;-77
2021/01/02 09:35:03;;;;;;;26.55;16.37;;;;;;;6.42;85.97;101042.48;1737502;81;21237;-74
2021/01/02 09:38:10;;;;;;;29.23;14.93;;;;;;;6.42;85.49;101049.78;1737352;82;22524;-76
2021/01/02 09:41:17;;;;;;;25.25;16.12;;;;;;;6.45;85.18;101038.66;1717430;82;21289;-76
2021/01/02 09:44:22;;;;;;;29.42;14.83;;;;;;;6.44;84.90;101053.22;1737649;82;21915;-77
2021/01/02 09:47:27;;;;;;;23.57;14.05;;;;;;;6.43;85.05;101051.50;1737291;82;21317;-76
2021/01/02 09:50:39;;;;;;;22.32;13.25;;;;;;;6.45;85.17;101058.54;1735207;82;21210;-76
2021/01/02 09:53:41;;;;;;;29.95;16.23;;;;;;;6.44;85.22;101055.93;1736329;82;21347;-76
2021/01/02 09:56:53;;;;;;;28.07;16.95;;;;;;;6.47;85.32;101055.67;1737632;82;21272;-76
2021/01/02 09:59:58;;;;;;;28.35;17.80;;;;;;;6.53;84.93;101051.06;1737566;82;21793;-77
2021/01/02 10:03:03;;;;;;;28.65;16.50;;;;;;;6.58;84.52;101055.61;1739181;82;21308;-76
2021/01/02 10:06:12;;;;;;;29.55;17.10;;;;;;;6.63;84.45;101061.50;1748982;82;21903;-76
2021/01/02 10:09:18;;;;;;;31.15;17.45;;;;;;;6.65;84.39;101058.17;1748892;82;21201;-76
2021/01/02 10:12:24;;;;;;;32.45;18.48;;;;;;;6.70;84.14;101060.49;1750290;82;21744;-76
2021/01/02 10:15:29;;;;;;;29.45;16.97;;;;;;;6.72;83.87;101060.70;1749784;82;21316;-77
2021/01/02 10:18:34;;;;;;;27.20;15.38;;;;;;;6.75;83.70;101064.53;1748804;82;21181;-77
2021/01/02 10:21:40;;;;;;;26.60;15.75;;;;;;;6.79;83.55;101064.63;1750347;82;21320;-77
2021/01/02 10:24:46;;;;;;;25.90;15.15;;;;;;;6.81;83.35;101067.20;1750390;82;21309;-75
2021/01/02 10:27:53;;;;;;;27.85;17.32;;;;;;;6.82;83.19;101069.81;1750375;82;21304;-76
2021/01/02 10:30:58;;;;;;;28.47;17.17;;;;;;;6.79;83.20;101071.94;1749196;82;21270;-76
2021/01/02 10:34:03;;;;;;;27.65;17.52;;;;;;;6.78;83.03;101070.22;1750441;80;21328;-76
2021/01/02 10:37:08;;;;;;;25.70;15.85;;;;;;;6.78;82.96;101069.71;1750522;82;21307;-76
2021/01/02 10:40:16;;;;;;;23.15;14.63;;;;;;;6.84;82.93;101071.89;1748872;82;21324;-76
2021/01/02 10:43:21;;;;;;;22.60;14.50;;;;;;;6.88;82.88;101067.91;1731526;82;21277;-76
2021/01/02 10:46:26;;;;;;;26.85;15.00;;;;;;;6.87;82.53;101064.83;1751044;82;21907;-76
2021/01/02 10:49:32;;;;;;;26.60;16.12;;;;;;;6.88;82.69;101065.19;1750330;82;21832;-76
2021/01/02 10:52:38;;;;;;;27.32;15.88;;;;;;;6.95;82.65;101067.36;1750406;82;21324;-76
2021/01/02 10:55:44;;;;;;;26.87;15.10;;;;;;;7.01;82.37;101069.53;1750291;82;21312;-76
2021/01/02 10:58:49;;;;;;;24.65;14.80;;;;;;;7.07;82.38;101078.54;1750343;82;21308;-75
2021/01/02 11:01:59;;;;;;;24.70;14.05;;;;;;;7.09;82.22;101081.47;1748941;82;21340;-76
2021/01/02 11:05:06;;;;;;;26.27;14.47;;;;;;;7.12;82.08;101080.35;1721870;82;21357;-76
2021/01/02 11:08:11;;;;;;;25.25;13.22;;;;;;;7.15;81.67;101072.79;1700356;84;21883;-75
2021/01/02 11:11:17;;;;;;;19.42;13.28;;;;;;;7.13;81.14;101077.98;1700977;84;21335;-76
2021/01/02 11:14:23;;;;;;;25.55;14.30;;;;;;;7.12;80.99;101079.85;1664461;84;21418;-76
2021/01/02 11:17:28;;;;;;;21.60;14.07;;;;;;;7.16;81.03;101077.73;1701793;84;21359;-76
2021/01/02 11:20:33;;;;;;;24.55;14.28;;;;;;;7.21;80.90;101078.18;1701551;84;21358;-75
2021/01/02 11:23:38;;;;;;;20.75;13.95;;;;;;;7.25;80.75;101083.72;1701829;84;21315;-76
2021/01/02 11:26:44;;;;;;;23.05;13.58;;;;;;;7.26;80.60;101079.99;1701854;84;21189;-75
2021/01/02 11:29:52;;;;;;;19.92;12.45;;;;;;;7.26;80.61;101088.16;1701414;84;21339;-76
2021/01/02 11:32:58;;;;;;;22.37;13.25;;;;;;;7.26;80.77;101088.66;1700495;84;21366;-76
2021/01/02 11:36:04;;;;;;;21.93;13.95;;;;;;;7.20;80.70;101094.15;1700790;83;21347;-76
2021/01/02 11:39:11;;;;;;;22.37;13.83;;;;;;;7.14;80.98;101096.03;1702001;84;21926;-76
2021/01/02 11:42:18;;;;;;;22.35;14.18;;;;;;;7.12;81.35;101092.59;1702105;84;21233;-76
2021/01/02 11:45:27;;;;;;;21.57;13.93;;;;;;;7.11;81.48;101097.17;1702860;84;21871;-76
2021/01/02 11:48:33;;;;;;;24.67;13.85;;;;;;;7.09;81.39;101103.73;1702976;84;21320;-76
2021/01/02 11:51:39;;;;;;;26.73;14.05;;;;;;;7.07;81.36;101105.24;1702912;84;21704;-76
2021/01/02 11:54:45;;;;;;;20.10;13.48;;;;;;;7.08;81.53;101102.88;1702994;84;21315;-75
2021/01/02 11:57:50;;;;;;;26.40;13.03;;;;;;;7.09;81.31;101111.39;1702604;84;21834;-75
2021/01/02 12:00:56;;;;;;;20.00;12.65;;;;;;;7.09;81.06;101111.90;1701298;84;21217;-76
2021/01/02 12:04:02;;;;;;;17.17;11.97;;;;;;;7.07;81.00;101124.28;1701785;84;21354;-75
2021/01/02 12:07:08;;;;;;;21.95;11.83;;;;;;;7.00;81.25;101114.06;1702174;82;21843;-76
2021/01/02 12:10:14;;;;;;;20.55;12.88;;;;;;;6.90;81.37;101127.09;1701801;84;21958;-76
2021/01/02 12:13:21;;;;;;;28.23;13.88;;;;;;;6.87;81.74;101132.82;1702903;84;21803;-76
2021/01/02 12:16:27;;;;;;;19.40;13.13;;;;;;;6.86;82.02;101128.35;1702970;84;21300;-76
2021/01/02 12:19:35;;;;;;;16.42;11.53;;;;;;;6.88;82.10;101137.76;1702620;84;21319;-76
2021/01/02 12:22:42;;;;;;;17.92;10.60;;;;;;;6.90;81.82;101140.70;1702887;84;21292;-76
2021/01/02 12:25:48;;;;;;;15.10;8.98;;;;;;;6.88;81.74;101142.70;1702794;84;21165;-76
2021/01/02 12:28:55;;;;;;;13.25;8.73;;;;;;;6.89;81.31;101143.05;1702220;84;21311;-76
2021/01/02 12:32:05;;;;;;;11.57;7.17;;;;;;;6.90;80.83;101143.41;1701791;84;21303;-76
2021/01/02 12:35:13;;;;;;;8.35;6.55;;;;;;;6.91;80.51;101149.21;1702974;83;21759;-76
2021/01/02 12:38:17;;;;;;;9.60;7.60;;;;;;;6.87;79.45;101149.64;1702933;84;21360;-76
2021/01/02 12:41:23;;;;;;;10.82;7.08;;;;;;;6.83;79.38;101168.57;1702192;84;21347;-76
2021/01/02 12:44:28;;;;;;;8.93;6.90;;;;;;;6.81;79.43;101167.31;1702127;84;21371;-76
2021/01/02 12:47:33;;;;;;;10.68;7.60;;;;;;;6.77;79.38;101174.52;1700762;84;21331;-76
2021/01/02 12:50:39;;;;;;;9.10;7.17;;;;;;;6.71;79.37;101179.98;1702047;84;21648;-76
2021/01/02 12:53:48;;;;;;;10.38;7.45;;;;;;;6.66;79.48;101183.59;1702986;84;21268;-76
2021/01/02 12:56:55;;;;;;;9.63;8.40;;;;;;;6.62;79.44;101182.98;1702683;84;21315;-75
2021/01/02 13:00:03;;;;;;;10.65;8.30;;;;;;;6.56;79.76;101190.30;1702020;84;21315;-76
2021/01/02 13:03:08;;;;;;;12.47;9.18;;;;;;;6.54;80.18;101192.77;1700975;84;21364;-76
2021/01/02 13:06:14;;;;;;;13.30;10.43;;;;;;;6.49;80.33;101196.36;1702787;82;21312;-75
2021/01/02 13:09:20;;;;;;;16.97;10.20;;;;;;;6.43;80.82;101207.76;1682002;84;21369;-76
2021/01/02 13:12:26;;;;;;;14.00;9.73;;;;;;;6.40;81.15;101211.61;1700655;84;21304;-76
2021/01/02 13:15:31;;;;;;;13.08;10.48;;;;;;;6.34;81.10;101222.47;1702483;84;21862;-76
2021/01/02 13:18:37;;;;;;;20.88;10.53;;;;;;;6.30;81.18;101225.56;1702068;84;21303;-76
2021/01/02 13:21:43;;;;;;;12.82;9.90;;;;;;;6.27;81.33;101226.70;1701911;84;21859;-76
2021/01/02 13:24:51;;;;;;;13.10;10.10;;;;;;;6.24;81.49;101231.02;1701890;84;21245;-76
2021/01/02 13:27:57;;;;;;;16.40;10.58;;;;;;;6.20;81.63;101230.89;1702102;84;21307;-75
2021/01/02 13:31:02;;;;;;;11.35;9.48;;;;;;;6.18;81.79;101232.89;1702017;84;21248;-76
2021/01/02 13:34:08;;;;;;;11.95;8.45;;;;;;;6.17;81.90;101230.30;1701953;83;21312;-76
2021/01/02 13:37:14;;;;;;;14.63;8.93;;;;;;;6.14;82.07;101243.63;1701909;84;21197;-75
2021/01/02 13:40:20;;;;;;;11.18;8.28;;;;;;;6.10;82.12;101244.37;1702009;84;21351;-76
2021/01/02 13:43:25;;;;;;;12.43;8.45;;;;;;;6.07;82.21;101247.82;1701186;84;21347;-75
2021/01/02 13:46:31;;;;;;;9.20;7.10;;;;;;;5.95;82.17;101257.84;1701959;84;21311;-76
2021/01/02 13:49:38;;;;;;;10.88;7.65;;;;;;;5.87;82.24;101257.05;1702065;84;21331;-76
2021/01/02 13:52:44;;;;;;;8.25;6.90;;;;;;;5.81;82.48;101265.70;1701679;84;21308;-76
2021/01/02 13:55:49;;;;;;;9.13;7.60;;;;;;;5.75;82.46;101266.20;1702018;84;21197;-76
2021/01/02 13:58:59;;;;;;;10.25;7.47;;;;;;;5.67;82.56;101282.22;1701926;84;21177;-77
2021/01/02 14:02:04;;;;;;;11.03;6.53;;;;;;;5.61;82.77;101281.35;1702594;84;21209;-76
2021/01/02 14:05:09;;;;;;;10.28;7.42;;;;;;;5.56;83.01;101284.92;1702985;84;21141;-76
2021/01/02 14:08:15;;;;;;;9.50;6.92;;;;;;;5.50;83.15;101288.09;1713355;82;21947;-76
2021/01/02 14:11:31;;;;;;;7.67;6.28;;;;;;;5.44;83.34;101282.66;1726478;83;22018;-76
2021/01/02 14:14:37;;;;;;;8.95;6.12;;;;;;;5.39;83.36;101288.45;1725029;83;21262;-76
2021/01/02 14:17:43;;;;;;;9.98;6.72;;;;;;;5.34;83.43;101289.30;1726247;83;21329;-76
2021/01/02 14:20:50;;;;;;;8.60;6.80;;;;;;;5.32;83.48;101291.28;1727364;83;21341;-76
2021/01/02 14:23:57;;;;;;;9.25;7.15;;;;;;;5.31;83.47;101294.09;1727439;83;21730;-76
2021/01/02 14:27:02;;;;;;;10.10;7.80;;;;;;;5.26;83.45;101301.72;1727459;83;21808;-76